createdAt,value
2019-03-18T00:01:30.396Z,1.40
2019-03-18T00:03:57.780Z,1.43
2019-03-18T00:06:25.194Z,2.00
2019-03-18T00:08:52.569Z,1.43
2019-03-18T00:11:19.976Z,2.50
2019-03-18T00:13:47.366Z,2.83
2019-03-18T00:16:14.783Z,2.20
2019-03-18T00:18:42.151Z,2.00
2019-03-18T00:21:09.569Z,1.87
2019-03-18T00:23:36.949Z,1.33
2019-03-18T00:26:04.357Z,1.50
2019-03-18T00:28:31.735Z,1.20
2019-03-18T00:30:59.145Z,1.40
2019-03-18T00:33:26.531Z,1.30
2019-03-18T00:35:53.937Z,1.20
2019-03-18T00:38:21.321Z,1.60
2019-03-18T00:40:48.737Z,1.00
2019-03-18T00:43:16.114Z,1.27
2019-03-18T00:45:43.523Z,1.70
2019-03-18T00:48:10.892Z,1.60
2019-03-18T00:50:38.276Z,1.30
2019-03-18T00:53:05.689Z,1.20
2019-03-18T00:55:33.124Z,1.30
2019-03-18T00:58:00.477Z,1.07
2019-03-18T01:00:27.924Z,1.40
2019-03-18T01:02:55.337Z,1.40
2019-03-18T01:05:23.655Z,1.50
2019-03-18T01:07:51.058Z,1.43
2019-03-18T01:10:18.514Z,1.53
2019-03-18T01:12:45.920Z,2.20
2019-03-18T01:15:13.573Z,1.55
2019-03-18T01:17:40.977Z,2.53
2019-03-18T01:20:09.017Z,2.03
2019-03-18T01:22:36.442Z,2.37
2019-03-18T01:25:05.212Z,3.05
2019-03-18T01:27:32.620Z,3.90
2019-03-18T01:30:00.000Z,5.03
2019-03-18T01:32:27.497Z,4.77
2019-03-18T01:34:54.863Z,4.70
2019-03-18T01:37:22.284Z,4.00
2019-03-18T01:39:49.671Z,4.30
2019-03-18T01:42:17.095Z,3.60
2019-03-18T01:44:44.459Z,3.50
2019-03-18T01:47:11.863Z,2.90
2019-03-18T01:49:39.256Z,2.57
2019-03-18T01:52:06.670Z,1.63
2019-03-18T01:54:34.067Z,1.50
2019-03-18T01:57:01.482Z,1.30
2019-03-18T01:59:28.864Z,1.40
2019-03-18T02:01:56.270Z,1.03
2019-03-18T02:04:23.654Z,1.30
2019-03-18T02:06:51.068Z,1.20
2019-03-18T02:09:18.445Z,1.70
2019-03-18T02:11:45.872Z,1.90
2019-03-18T02:14:13.254Z,3.90
2019-03-18T02:16:40.634Z,3.20
2019-03-18T02:19:08.042Z,1.60
2019-03-18T02:21:35.428Z,2.10
2019-03-18T02:24:02.907Z,1.70
2019-03-18T02:26:30.290Z,1.43
2019-03-18T02:28:57.699Z,1.47
2019-03-18T02:31:25.085Z,1.80
2019-03-18T02:33:52.479Z,1.60
2019-03-18T02:36:19.884Z,1.10
2019-03-18T02:38:47.268Z,1.20
2019-03-18T02:41:14.648Z,1.40
2019-03-18T02:43:42.053Z,1.10
2019-03-18T02:46:10.892Z,1.27
2019-03-18T02:48:38.550Z,1.20
2019-03-18T02:51:05.931Z,1.00
2019-03-18T02:53:33.345Z,1.00
2019-03-18T02:56:00.795Z,1.10
2019-03-18T02:58:28.292Z,1.17
2019-03-18T03:00:55.681Z,1.23
2019-03-18T03:03:23.096Z,1.17
2019-03-18T03:05:50.475Z,1.30
2019-03-18T03:08:17.886Z,1.20
2019-03-18T03:10:45.260Z,1.80
2019-03-18T03:13:12.746Z,1.73
2019-03-18T03:15:40.122Z,1.40
2019-03-18T03:18:07.542Z,1.37
2019-03-18T03:20:34.912Z,1.27
2019-03-18T03:23:02.322Z,1.20
2019-03-18T03:25:29.762Z,1.40
2019-03-18T03:27:57.170Z,1.00
2019-03-18T03:30:24.579Z,1.50
2019-03-18T03:32:51.966Z,1.27
2019-03-18T03:35:19.610Z,1.30
2019-03-18T03:37:46.940Z,1.30
2019-03-18T03:40:14.417Z,1.40
2019-03-18T03:42:41.785Z,1.20
2019-03-18T03:45:10.376Z,1.60
2019-03-18T03:47:37.754Z,1.17
2019-03-18T03:50:06.533Z,1.57
2019-03-18T03:52:33.912Z,1.37
2019-03-18T03:55:01.319Z,1.37
2019-03-18T03:57:28.693Z,1.60
2019-03-18T03:59:56.171Z,1.33
2019-03-18T04:02:23.619Z,1.60
2019-03-18T04:04:51.099Z,1.47
2019-03-18T04:07:18.479Z,1.40
2019-03-18T04:09:45.889Z,1.67
2019-03-18T04:12:13.277Z,1.73
2019-03-18T04:14:40.682Z,1.33
2019-03-18T04:17:08.062Z,1.30
2019-03-18T04:19:35.481Z,1.27
2019-03-18T04:22:02.858Z,1.67
2019-03-18T04:24:30.271Z,1.53
2019-03-18T04:26:57.652Z,1.73
2019-03-18T04:29:25.065Z,1.67
2019-03-18T04:31:52.438Z,2.00
2019-03-18T04:34:19.855Z,1.60
2019-03-18T04:36:47.230Z,1.70
2019-03-18T04:39:14.635Z,1.10
2019-03-18T04:41:42.006Z,1.30
2019-03-18T04:44:09.412Z,1.33
2019-03-18T04:46:36.789Z,1.57
2019-03-18T04:49:04.188Z,1.80
2019-03-18T04:51:31.574Z,1.23
2019-03-18T04:53:58.974Z,1.40
2019-03-18T04:56:26.357Z,1.60
2019-03-18T04:58:53.765Z,1.40
2019-03-18T05:01:21.137Z,1.27
2019-03-18T05:03:48.514Z,1.47
2019-03-18T05:06:15.922Z,1.73
2019-03-18T05:08:43.305Z,1.27
2019-03-18T05:11:10.722Z,1.50
2019-03-18T05:13:38.108Z,1.20
2019-03-18T05:16:05.524Z,1.90
2019-03-18T05:18:32.901Z,2.43
2019-03-18T05:21:00.313Z,2.30
2019-03-18T05:23:27.692Z,3.30
2019-03-18T05:25:55.100Z,3.00
2019-03-18T05:28:22.476Z,2.10
2019-03-18T05:30:49.895Z,1.57
2019-03-18T05:33:17.268Z,1.80
2019-03-18T05:35:44.684Z,1.83
2019-03-18T05:38:12.529Z,1.80
2019-03-18T05:40:39.946Z,1.70
2019-03-18T05:43:07.393Z,1.53
2019-03-18T05:45:34.810Z,1.70
2019-03-18T05:48:02.188Z,2.40
2019-03-18T05:50:29.673Z,1.67
2019-03-18T05:52:57.053Z,1.83
2019-03-18T05:55:24.464Z,1.43
2019-03-18T05:57:51.833Z,1.87
2019-03-18T06:00:19.315Z,2.57
2019-03-18T06:02:47.159Z,2.20
2019-03-18T06:05:14.809Z,2.60
2019-03-18T06:07:42.198Z,1.70
2019-03-18T06:10:10.583Z,2.20
2019-03-18T06:12:37.957Z,1.90
2019-03-18T06:15:06.942Z,1.60
2019-03-18T06:17:34.320Z,2.20
2019-03-18T06:20:01.736Z,2.07
2019-03-18T06:22:29.117Z,2.07
2019-03-18T06:24:56.531Z,2.17
2019-03-18T06:27:23.913Z,1.90
2019-03-18T06:29:51.293Z,2.00
2019-03-18T06:32:18.703Z,2.63
2019-03-18T06:34:46.089Z,2.07
2019-03-18T06:37:13.497Z,2.20
2019-03-18T06:39:40.870Z,2.07
2019-03-18T06:42:08.278Z,1.90
2019-03-18T06:44:35.660Z,2.50
2019-03-18T06:47:03.083Z,2.10
2019-03-18T06:49:30.465Z,2.57
2019-03-18T06:51:57.868Z,2.60
2019-03-18T06:54:25.246Z,2.63
2019-03-18T06:56:52.663Z,1.83
2019-03-18T06:59:20.042Z,2.50
2019-03-18T07:01:47.450Z,2.27
2019-03-18T07:04:14.831Z,2.03
2019-03-18T07:06:42.245Z,2.25
2019-03-18T07:09:09.647Z,2.00
2019-03-18T07:11:37.044Z,3.13
2019-03-18T07:14:04.510Z,1.93
2019-03-18T07:16:31.905Z,2.60
2019-03-18T07:18:59.278Z,2.00
2019-03-18T07:21:26.724Z,2.47
2019-03-18T07:23:54.142Z,2.30
2019-03-18T07:26:21.532Z,1.63
2019-03-18T07:28:48.916Z,2.67
2019-03-18T07:31:16.322Z,1.97
2019-03-18T07:33:43.695Z,2.00
2019-03-18T07:36:11.104Z,2.30
2019-03-18T07:38:38.503Z,2.37
2019-03-18T07:41:05.904Z,2.20
2019-03-18T07:43:33.280Z,2.20
2019-03-18T07:46:00.704Z,2.40
2019-03-18T07:48:31.362Z,2.20
2019-03-18T07:50:57.145Z,2.50
2019-03-18T07:53:24.529Z,2.53
2019-03-18T07:55:51.922Z,2.30
2019-03-18T07:58:22.226Z,2.13
2019-03-18T08:00:48.362Z,1.70
2019-03-18T08:03:15.848Z,2.10
2019-03-18T08:05:43.229Z,2.03
2019-03-18T08:08:10.635Z,1.90
2019-03-18T08:10:38.015Z,2.00
2019-03-18T08:13:05.426Z,2.07
2019-03-18T08:15:32.799Z,2.07
2019-03-18T08:18:00.207Z,2.33
2019-03-18T08:20:27.588Z,2.67
2019-03-18T08:22:54.995Z,2.30
2019-03-18T08:25:22.377Z,1.97
2019-03-18T08:27:49.786Z,2.43
2019-03-18T08:30:17.946Z,2.93
2019-03-18T08:32:45.350Z,1.80
2019-03-18T08:35:12.971Z,1.87
2019-03-18T08:37:40.339Z,2.53
2019-03-18T08:40:11.105Z,2.63
2019-03-18T08:42:38.485Z,1.80
2019-03-18T08:45:12.437Z,2.00
2019-03-18T08:47:39.837Z,2.37
2019-03-18T08:50:08.089Z,2.23
2019-03-18T08:52:35.498Z,2.00
2019-03-18T08:55:02.948Z,2.10
2019-03-18T08:57:30.361Z,2.40
2019-03-18T08:59:57.736Z,2.00
2019-03-18T09:02:25.147Z,3.00
2019-03-18T09:04:52.526Z,1.90
2019-03-18T09:07:19.935Z,2.00
2019-03-18T09:09:47.314Z,1.90
2019-03-18T09:12:14.720Z,2.10
2019-03-18T09:14:42.105Z,2.80
2019-03-18T09:17:09.513Z,1.93
2019-03-18T09:19:36.895Z,2.13
2019-03-18T09:22:04.309Z,2.33
2019-03-18T09:24:31.669Z,2.70
2019-03-18T09:27:02.576Z,2.17
2019-03-18T09:29:28.100Z,2.10
2019-03-18T09:31:55.514Z,2.70
2019-03-18T09:34:22.894Z,2.73
2019-03-18T09:36:50.311Z,2.10
2019-03-18T09:39:17.697Z,2.60
2019-03-18T09:41:45.111Z,2.00
2019-03-18T09:44:12.583Z,1.97
2019-03-18T09:46:39.962Z,2.07
2019-03-18T09:49:07.366Z,1.90
2019-03-18T09:51:34.740Z,2.20
2019-03-18T09:54:02.172Z,1.90
2019-03-18T09:56:29.546Z,1.67
2019-03-18T09:58:56.947Z,1.63
2019-03-18T10:01:24.336Z,2.10
2019-03-18T10:03:51.755Z,1.83
2019-03-18T10:06:19.140Z,2.20
2019-03-18T10:08:46.541Z,2.00
2019-03-18T10:11:13.926Z,1.70
2019-03-18T10:13:41.341Z,1.87
2019-03-18T10:16:08.732Z,1.50
2019-03-18T10:18:36.132Z,1.87
2019-03-18T10:21:03.515Z,2.10
2019-03-18T10:23:30.929Z,2.13
2019-03-18T10:25:58.302Z,2.10
2019-03-18T10:28:25.709Z,2.33
2019-03-18T10:30:53.096Z,1.47
2019-03-18T10:33:20.514Z,2.00
2019-03-18T10:35:47.895Z,2.30
2019-03-18T10:38:15.305Z,2.27
2019-03-18T10:40:42.702Z,1.83
2019-03-18T10:43:10.103Z,2.27
2019-03-18T10:45:37.481Z,2.17
2019-03-18T10:48:04.956Z,1.67
2019-03-18T10:50:32.347Z,1.30
2019-03-18T10:52:59.761Z,2.10
2019-03-18T10:55:27.146Z,1.82
2019-03-18T10:57:54.558Z,2.30
2019-03-18T11:00:21.939Z,2.63
2019-03-18T11:02:49.319Z,2.13
2019-03-18T11:05:16.757Z,1.77
2019-03-18T11:07:44.183Z,2.40
2019-03-18T11:10:15.800Z,2.17
2019-03-18T11:12:43.184Z,1.73
2019-03-18T11:15:11.872Z,1.60
2019-03-18T11:17:39.255Z,1.40
2019-03-18T11:20:08.184Z,1.90
2019-03-18T11:22:35.557Z,1.10
2019-03-18T11:25:03.153Z,2.13
2019-03-18T11:27:30.529Z,1.30
2019-03-18T11:29:57.941Z,1.67
2019-03-18T11:32:25.337Z,1.20
2019-03-18T11:34:52.736Z,1.60
2019-03-18T11:37:20.125Z,1.53
2019-03-18T11:39:47.605Z,1.33
2019-03-18T11:42:14.976Z,1.50
2019-03-18T11:44:42.398Z,1.33
2019-03-18T11:47:09.781Z,1.20
2019-03-18T11:49:39.771Z,1.40
2019-03-18T11:52:06.218Z,1.33
2019-03-18T11:54:33.719Z,1.83
2019-03-18T11:57:01.207Z,1.27
2019-03-18T11:59:28.609Z,1.63
2019-03-18T12:01:55.993Z,1.47
2019-03-18T12:04:23.406Z,1.30
2019-03-18T12:06:50.854Z,1.40
2019-03-18T12:09:18.261Z,1.33
2019-03-18T12:11:45.641Z,1.30
2019-03-18T12:14:13.084Z,1.80
2019-03-18T12:16:40.424Z,1.60
2019-03-18T12:19:07.833Z,1.50
2019-03-18T12:21:35.213Z,1.27
2019-03-18T12:24:02.589Z,1.00
2019-03-18T12:26:30.017Z,1.10
2019-03-18T12:28:57.383Z,1.33
2019-03-18T12:31:24.801Z,2.07
2019-03-18T12:33:52.187Z,1.70
2019-03-18T12:36:19.673Z,1.50
2019-03-18T12:38:47.070Z,1.33
2019-03-18T12:41:14.482Z,1.57
2019-03-18T12:43:41.872Z,1.10
2019-03-18T12:46:09.286Z,1.77
2019-03-18T12:48:36.674Z,1.63
2019-03-18T12:51:04.253Z,1.47
2019-03-18T12:53:31.637Z,1.57
2019-03-18T12:55:59.057Z,1.40
2019-03-18T12:58:26.417Z,1.43
2019-03-18T13:00:53.833Z,1.60
2019-03-18T13:03:21.282Z,1.60
2019-03-18T13:05:48.689Z,1.63
2019-03-18T13:08:16.140Z,1.47
2019-03-18T13:10:43.614Z,1.50
2019-03-18T13:13:11.002Z,1.50
2019-03-18T13:15:38.399Z,1.60
2019-03-18T13:18:05.775Z,1.53
2019-03-18T13:20:33.191Z,1.60
2019-03-18T13:23:00.567Z,1.90
2019-03-18T13:25:27.972Z,1.60
2019-03-18T13:27:55.355Z,1.83
2019-03-18T13:30:24.309Z,1.63
2019-03-18T13:32:52.068Z,2.13
2019-03-18T13:35:19.478Z,2.03
2019-03-18T13:37:46.923Z,1.63
2019-03-18T13:40:14.626Z,1.73
2019-03-18T13:42:42.050Z,1.60
2019-03-18T13:45:11.206Z,1.80
2019-03-18T13:47:38.613Z,1.77
2019-03-18T13:50:07.768Z,2.10
2019-03-18T13:52:35.171Z,1.43
2019-03-18T13:55:02.564Z,1.57
2019-03-18T13:57:29.974Z,1.40
2019-03-18T13:59:57.367Z,1.17
2019-03-18T14:02:24.778Z,1.33
2019-03-18T14:04:52.165Z,1.13
2019-03-18T14:07:22.304Z,1.30
2019-03-18T14:09:48.593Z,1.00
2019-03-18T14:12:16.012Z,1.43
2019-03-18T14:14:43.395Z,1.20
2019-03-18T14:17:10.807Z,1.30
2019-03-18T14:19:38.190Z,1.47
2019-03-18T14:22:05.605Z,1.40
2019-03-18T14:24:32.988Z,1.37
2019-03-18T14:27:00.389Z,1.10
2019-03-18T14:29:27.772Z,1.40
2019-03-18T14:31:55.177Z,1.10
2019-03-18T14:34:22.556Z,0.77
2019-03-18T14:36:49.974Z,0.80
2019-03-18T14:39:17.358Z,1.00
2019-03-18T14:41:44.779Z,1.53
2019-03-18T14:44:12.153Z,1.80
2019-03-18T14:46:39.563Z,1.30
2019-03-18T14:49:06.951Z,1.27
2019-03-18T14:51:45.362Z,1.90
2019-03-18T14:54:03.383Z,2.67
2019-03-18T14:56:30.793Z,1.30
2019-03-18T14:58:58.201Z,1.80
2019-03-18T15:01:25.584Z,2.00
2019-03-18T15:03:53.003Z,2.20
2019-03-18T15:06:20.384Z,1.10
2019-03-18T15:08:47.804Z,1.53
2019-03-18T15:11:15.189Z,1.10
2019-03-18T15:13:42.602Z,1.20
2019-03-18T15:16:09.984Z,1.20
2019-03-18T15:18:37.389Z,1.47
2019-03-18T15:21:04.778Z,1.40
2019-03-18T15:23:32.199Z,1.00
2019-03-18T15:25:59.569Z,1.20
2019-03-18T15:28:26.984Z,1.63
2019-03-18T15:30:54.370Z,1.20
2019-03-18T15:33:21.776Z,1.00
2019-03-18T15:35:49.162Z,1.17
2019-03-18T15:38:16.572Z,1.43
2019-03-18T15:40:43.956Z,1.20
2019-03-18T15:43:11.524Z,1.33
2019-03-18T15:45:38.981Z,1.90
2019-03-18T15:48:06.396Z,1.10
2019-03-18T15:50:33.781Z,1.60
2019-03-18T15:53:01.260Z,1.20
2019-03-18T15:55:28.651Z,1.23
2019-03-18T15:57:56.053Z,1.50
2019-03-18T16:00:29.964Z,1.93
2019-03-18T16:02:57.429Z,1.40
2019-03-18T16:05:24.826Z,1.03
2019-03-18T16:07:52.226Z,1.77
2019-03-18T16:10:20.085Z,1.90
2019-03-18T16:12:47.491Z,1.23
2019-03-18T16:15:15.342Z,1.30
2019-03-18T16:17:42.748Z,1.60
2019-03-18T16:20:11.677Z,1.60
2019-03-18T16:22:39.046Z,1.70
2019-03-18T16:25:07.221Z,1.70
2019-03-18T16:27:34.603Z,1.47
2019-03-18T16:30:03.977Z,1.60
2019-03-18T16:32:31.070Z,1.00
2019-03-18T16:34:58.482Z,1.20
2019-03-18T16:37:25.869Z,1.30
2019-03-18T16:39:53.316Z,1.90
2019-03-18T16:42:20.647Z,1.05
2019-03-18T16:44:48.054Z,1.53
2019-03-18T16:47:15.434Z,0.83
2019-03-18T16:49:42.841Z,1.50
2019-03-18T16:52:10.205Z,1.10
2019-03-18T16:54:37.627Z,1.30
2019-03-18T16:57:05.005Z,1.50
2019-03-18T16:59:32.406Z,0.77
2019-03-18T17:01:59.789Z,0.73
2019-03-18T17:04:27.204Z,4.53
2019-03-18T17:06:54.595Z,1.27
2019-03-18T17:09:22.006Z,0.70
2019-03-18T17:11:49.388Z,0.80
2019-03-18T17:14:16.794Z,1.20
2019-03-18T17:16:44.170Z,0.77
2019-03-18T17:19:11.582Z,1.03
2019-03-18T17:21:38.956Z,0.90
2019-03-18T17:24:06.370Z,0.90
2019-03-18T17:26:33.750Z,0.60
2019-03-18T17:29:01.159Z,0.80
2019-03-18T17:31:28.533Z,1.10
2019-03-18T17:33:55.942Z,1.00
2019-03-18T17:36:23.316Z,0.87
2019-03-18T17:38:50.732Z,0.80
2019-03-18T17:41:18.112Z,0.70
2019-03-18T17:43:45.521Z,0.80
2019-03-18T17:46:12.902Z,1.00
2019-03-18T17:48:40.316Z,1.30
2019-03-18T17:51:07.699Z,1.07
2019-03-18T17:53:35.096Z,1.70
2019-03-18T17:56:02.481Z,5.90
2019-03-18T17:58:29.881Z,6.03
2019-03-18T18:00:58.910Z,4.47
2019-03-18T18:03:26.329Z,6.83
2019-03-18T18:05:53.707Z,4.57
2019-03-18T18:08:21.110Z,2.73
2019-03-18T18:10:48.495Z,2.40
2019-03-18T18:13:15.878Z,2.37
2019-03-18T18:15:43.278Z,2.97
2019-03-18T18:18:10.662Z,4.07
2019-03-18T18:20:38.075Z,2.30
2019-03-18T18:23:14.192Z,1.93
2019-03-18T18:25:34.508Z,1.90
2019-03-18T18:28:01.892Z,1.70
2019-03-18T18:30:29.308Z,1.60
2019-03-18T18:32:56.683Z,2.17
2019-03-18T18:35:24.111Z,2.90
2019-03-18T18:37:51.498Z,2.37
2019-03-18T18:40:22.621Z,2.50
2019-03-18T18:42:50.007Z,2.83
2019-03-18T18:45:17.416Z,1.93
2019-03-18T18:47:44.862Z,1.60
2019-03-18T18:50:12.643Z,2.40
2019-03-18T18:52:40.095Z,3.20
2019-03-18T18:55:09.041Z,4.23
2019-03-18T18:57:36.468Z,3.60
2019-03-18T19:00:14.525Z,2.25
2019-03-18T19:02:41.901Z,1.87
2019-03-18T19:05:10.385Z,1.73
2019-03-18T19:07:37.759Z,1.50
2019-03-18T19:10:06.744Z,1.30
2019-03-18T19:12:34.115Z,1.77
2019-03-18T19:15:01.533Z,1.83
2019-03-18T19:17:28.909Z,1.50
2019-03-18T19:19:56.318Z,4.33
2019-03-18T19:22:23.706Z,2.23
2019-03-18T19:24:51.111Z,2.57
2019-03-18T19:27:18.493Z,1.33
2019-03-18T19:29:45.905Z,1.60
2019-03-18T19:32:13.285Z,1.80
2019-03-18T19:34:40.696Z,1.90
2019-03-18T19:37:08.083Z,2.03
2019-03-18T19:39:35.498Z,1.27
2019-03-18T19:42:02.879Z,1.73
2019-03-18T19:44:30.250Z,1.87
2019-03-18T19:46:57.666Z,1.73
2019-03-18T19:49:25.054Z,1.87
2019-03-18T19:51:52.465Z,1.77
2019-03-18T19:54:19.837Z,2.07
2019-03-18T19:56:47.246Z,1.67
2019-03-18T19:59:14.630Z,1.20
2019-03-18T20:01:42.041Z,1.77
2019-03-18T20:04:09.423Z,1.40
2019-03-18T20:06:36.821Z,2.13
2019-03-18T20:09:05.515Z,2.30
2019-03-18T20:11:32.888Z,1.93
2019-03-18T20:14:00.275Z,2.03
2019-03-18T20:16:27.681Z,1.60
2019-03-18T20:18:55.049Z,2.10
2019-03-18T20:21:22.480Z,2.00
2019-03-18T20:24:00.404Z,2.20
2019-03-18T20:26:18.949Z,1.93
2019-03-18T20:28:46.314Z,2.17
2019-03-18T20:31:25.157Z,2.03
2019-03-18T20:33:42.769Z,2.07
2019-03-18T20:36:10.233Z,2.20
2019-03-18T20:38:37.605Z,2.20
2019-03-18T20:41:05.013Z,1.97
2019-03-18T20:43:32.426Z,1.63
2019-03-18T20:45:59.916Z,1.77
2019-03-18T20:48:27.288Z,2.43
2019-03-18T20:50:56.670Z,2.53
2019-03-18T20:53:23.774Z,1.77
2019-03-18T20:55:51.176Z,2.17
2019-03-18T20:58:18.609Z,2.20
2019-03-18T21:00:46.034Z,1.83
2019-03-18T21:03:13.379Z,2.40
2019-03-18T21:05:40.837Z,1.90
2019-03-18T21:08:08.231Z,1.50
2019-03-18T21:10:35.691Z,1.77
2019-03-18T21:13:03.134Z,1.20
2019-03-18T21:15:30.474Z,1.97
2019-03-18T21:17:57.885Z,1.30
2019-03-18T21:20:28.360Z,1.20
2019-03-18T21:22:55.758Z,1.10
2019-03-18T21:25:23.215Z,1.03
2019-03-18T21:27:50.622Z,1.40
2019-03-18T21:30:21.471Z,1.50
2019-03-18T21:32:48.984Z,2.00
2019-03-18T21:35:16.403Z,2.63
2019-03-18T21:37:43.806Z,1.70
2019-03-18T21:40:12.734Z,2.33
2019-03-18T21:42:40.139Z,2.27
2019-03-18T21:45:09.154Z,2.40
2019-03-18T21:47:36.597Z,2.10
2019-03-18T21:50:05.153Z,2.00
2019-03-18T21:52:32.563Z,2.17
2019-03-18T21:54:59.949Z,2.23
2019-03-18T21:57:27.358Z,2.23
2019-03-18T21:59:54.737Z,1.67
2019-03-18T22:02:22.154Z,2.30
2019-03-18T22:04:49.535Z,1.80
2019-03-18T22:07:16.943Z,2.10
2019-03-18T22:09:44.327Z,2.17
2019-03-18T22:12:11.745Z,2.10
2019-03-18T22:14:39.112Z,2.20
2019-03-18T22:17:06.521Z,2.02
2019-03-18T22:19:33.894Z,2.50
2019-03-18T22:22:01.298Z,2.30
2019-03-18T22:24:28.673Z,2.17
2019-03-18T22:26:56.082Z,2.23
2019-03-18T22:29:23.470Z,2.00
2019-03-18T22:31:50.850Z,1.73
2019-03-18T22:34:18.257Z,2.60
2019-03-18T22:36:45.653Z,2.43
2019-03-18T22:39:13.099Z,2.63
2019-03-18T22:41:40.468Z,3.00
2019-03-18T22:44:07.945Z,3.03
2019-03-18T22:46:35.322Z,2.93
2019-03-18T22:49:02.729Z,2.83
2019-03-18T22:51:30.115Z,2.83
2019-03-18T22:53:57.525Z,2.73
2019-03-18T22:56:24.901Z,3.40
2019-03-18T22:58:52.357Z,2.90
2019-03-18T23:01:19.729Z,3.17
2019-03-18T23:03:47.201Z,3.20
2019-03-18T23:06:14.587Z,3.20
2019-03-18T23:08:42.069Z,2.50
2019-03-18T23:11:09.457Z,2.93
2019-03-18T23:13:36.867Z,3.00
2019-03-18T23:16:04.313Z,5.23
2019-03-18T23:18:31.716Z,3.83
2019-03-18T23:20:59.095Z,4.20
2019-03-18T23:23:26.577Z,4.27
2019-03-18T23:25:53.957Z,3.93
2019-03-18T23:28:21.357Z,4.37
2019-03-18T23:30:48.737Z,4.83
2019-03-18T23:33:16.141Z,4.80
2019-03-18T23:35:43.521Z,4.07
2019-03-18T23:38:10.934Z,4.57
2019-03-18T23:40:38.318Z,4.70
2019-03-18T23:43:05.704Z,4.83
2019-03-18T23:45:33.185Z,5.30
2019-03-18T23:48:00.567Z,5.40
2019-03-18T23:50:27.993Z,4.80
2019-03-18T23:52:55.357Z,5.40
2019-03-18T23:55:22.769Z,5.70
2019-03-18T23:57:50.169Z,5.47
